createdAt,value
2022-11-24T00:01:34.655Z,8.08
2022-11-24T00:06:36.368Z,8.09
2022-11-24T00:11:38.289Z,8.09
2022-11-24T00:16:40.545Z,8.09
2022-11-24T00:21:42.429Z,8.11
2022-11-24T00:26:44.525Z,8.10
2022-11-24T00:31:46.218Z,8.08
2022-11-24T00:36:48.045Z,8.10
2022-11-24T00:41:50.162Z,8.11
2022-11-24T00:46:51.997Z,8.11
2022-11-24T00:51:54.661Z,8.13
2022-11-24T00:56:56.600Z,8.14
2022-11-24T01:01:58.448Z,8.16
2022-11-24T01:07:00.457Z,8.18
2022-11-24T01:12:02.166Z,8.22
2022-11-24T01:17:04.304Z,8.23
2022-11-24T01:22:06.178Z,8.27
2022-11-24T01:27:09.019Z,8.26
2022-11-24T01:32:11.473Z,8.28
2022-11-24T01:37:15.772Z,8.32
2022-11-24T01:42:17.892Z,8.32
2022-11-24T01:47:35.781Z,8.32
2022-11-24T01:52:43.605Z,8.36
2022-11-24T01:57:51.684Z,8.40
2022-11-24T02:02:53.860Z,8.45
2022-11-24T02:08:00.621Z,8.49
2022-11-24T02:13:03.476Z,8.50
2022-11-24T02:18:06.039Z,8.55
2022-11-24T02:23:25.890Z,8.58
2022-11-24T02:28:30.899Z,8.60
2022-11-24T02:33:34.381Z,8.65
2022-11-24T02:38:37.570Z,8.70
2022-11-24T02:43:43.305Z,8.78
2022-11-24T02:48:45.122Z,8.84
2022-11-24T02:53:46.935Z,8.91
2022-11-24T02:58:48.664Z,8.96
2022-11-24T03:03:50.365Z,8.99
2022-11-24T03:08:52.216Z,8.99
2022-11-24T03:13:53.859Z,9.02
2022-11-24T03:18:56.738Z,9.02
2022-11-24T03:23:58.539Z,9.04
2022-11-24T03:29:00.333Z,9.06
2022-11-24T03:34:01.963Z,9.08
2022-11-24T03:39:03.824Z,9.10
2022-11-24T03:44:05.557Z,9.14
2022-11-24T03:49:07.365Z,9.14
2022-11-24T03:54:09.854Z,9.15
2022-11-24T03:59:11.497Z,9.16
2022-11-24T04:04:14.208Z,9.16
2022-11-24T04:09:15.896Z,9.19
2022-11-24T04:14:18.679Z,9.20
2022-11-24T04:19:21.314Z,9.24
2022-11-24T04:24:22.981Z,9.27
2022-11-24T04:29:24.866Z,9.29
2022-11-24T04:34:26.506Z,9.30
2022-11-24T04:39:28.711Z,9.32
2022-11-24T04:44:30.512Z,9.33
2022-11-24T04:49:32.326Z,9.35
2022-11-24T04:54:34.182Z,9.36
2022-11-24T04:59:35.958Z,9.37
2022-11-24T05:04:38.858Z,9.37
2022-11-24T05:10:00.528Z,9.37
2022-11-24T05:15:03.674Z,9.38
2022-11-24T05:20:09.282Z,9.38
2022-11-24T05:25:11.214Z,9.35
2022-11-24T05:30:13.445Z,9.38
2022-11-24T05:35:15.609Z,9.38
2022-11-24T05:40:19.224Z,9.39
2022-11-24T05:45:23.180Z,9.42
2022-11-24T05:50:24.979Z,9.47
2022-11-24T05:55:26.568Z,9.42
2022-11-24T06:00:31.040Z,9.42
2022-11-24T06:05:32.804Z,9.38
2022-11-24T06:10:34.501Z,9.36
2022-11-24T06:15:37.984Z,9.35
2022-11-24T06:20:39.736Z,9.35
2022-11-24T06:25:41.309Z,9.35
2022-11-24T06:30:42.928Z,9.34
2022-11-24T06:35:44.994Z,9.35
2022-11-24T06:40:47.079Z,9.33
2022-11-24T06:45:52.213Z,9.36
2022-11-24T06:50:58.569Z,9.35
2022-11-24T06:56:01.861Z,9.35
2022-11-24T07:01:03.529Z,9.36
2022-11-24T07:06:05.333Z,9.37
2022-11-24T07:11:09.878Z,9.33
2022-11-24T07:16:20.630Z,9.33
2022-11-24T07:21:24.209Z,9.36
2022-11-24T07:26:26.382Z,9.36
2022-11-24T07:31:28.267Z,9.39
2022-11-24T07:36:30.171Z,9.42
2022-11-24T07:41:31.752Z,9.46
2022-11-24T07:46:33.496Z,9.47
2022-11-24T07:51:37.047Z,9.48
2022-11-24T07:56:39.287Z,9.52
2022-11-24T08:01:41.357Z,9.56
2022-11-24T08:06:47.163Z,9.57
2022-11-24T08:11:49.163Z,9.62
2022-11-24T08:16:50.900Z,9.67
2022-11-24T08:21:52.674Z,9.65
2022-11-24T08:26:54.307Z,9.65
2022-11-24T08:31:59.187Z,9.66
2022-11-24T08:37:01.370Z,9.64
2022-11-24T08:42:03.428Z,9.68
2022-11-24T08:47:05.086Z,9.71
2022-11-24T08:52:06.761Z,9.75
2022-11-24T08:57:08.414Z,9.80
2022-11-24T09:02:13.947Z,9.83
2022-11-24T09:07:15.834Z,9.88
2022-11-24T09:12:17.538Z,9.92
2022-11-24T09:17:19.186Z,9.95
2022-11-24T09:22:20.910Z,9.96
2022-11-24T09:27:22.859Z,9.94
2022-11-24T09:32:24.528Z,9.94
2022-11-24T09:37:29.796Z,9.93
2022-11-24T09:42:42.680Z,9.92
2022-11-24T09:48:09.221Z,9.91
2022-11-24T09:53:26.238Z,9.95
2022-11-24T09:58:37.297Z,9.96
2022-11-24T10:03:45.350Z,10.00
2022-11-24T10:09:09.162Z,10.06
2022-11-24T10:14:38.963Z,10.15
2022-11-24T10:19:47.427Z,10.20
2022-11-24T10:24:52.146Z,10.23
2022-11-24T10:29:55.083Z,10.20
2022-11-24T10:35:12.458Z,10.20
2022-11-24T10:46:23.339Z,10.04
2022-11-24T10:51:44.790Z,10.01
2022-11-24T10:56:49.689Z,9.99
2022-11-24T11:01:52.925Z,9.97
2022-11-24T11:07:18.587Z,9.89
2022-11-24T11:12:43.536Z,9.86
2022-11-24T11:17:46.333Z,9.84
2022-11-24T11:22:50.331Z,9.84
2022-11-24T11:28:17.705Z,9.83
2022-11-24T11:38:48.829Z,9.83
2022-11-24T11:43:57.060Z,9.84
2022-11-24T11:48:58.716Z,9.85
2022-11-24T11:54:26.197Z,9.86
2022-11-24T11:59:55.845Z,9.90
2022-11-24T12:05:05.630Z,9.89
2022-11-24T12:10:23.628Z,9.86
2022-11-24T12:15:40.427Z,9.88
2022-11-24T12:21:05.996Z,9.86
2022-11-24T12:26:24.684Z,9.85
2022-11-24T12:31:39.543Z,9.85
2022-11-24T12:37:09.100Z,9.83
2022-11-24T12:42:37.830Z,9.83
2022-11-24T12:47:48.723Z,9.82
2022-11-24T12:53:05.154Z,9.82
2022-11-24T12:58:32.567Z,9.84
2022-11-24T13:03:45.549Z,9.89
2022-11-24T13:08:47.663Z,9.94
2022-11-24T13:14:07.287Z,10.02
2022-11-24T13:19:15.069Z,10.14
2022-11-24T13:24:17.078Z,10.17
2022-11-24T13:29:28.514Z,10.23
2022-11-24T13:34:43.223Z,10.24
2022-11-24T13:39:55.115Z,10.27
2022-11-24T13:44:57.798Z,10.27
2022-11-24T13:50:00.669Z,10.21
2022-11-24T13:55:23.425Z,10.19
2022-11-24T14:00:34.030Z,10.23
2022-11-24T14:05:46.355Z,10.32
2022-11-24T14:10:48.731Z,10.48
2022-11-24T14:16:06.207Z,10.61
2022-11-24T14:21:20.282Z,10.71
2022-11-24T14:26:42.671Z,10.75
2022-11-24T14:31:58.704Z,10.77
2022-11-24T14:37:01.338Z,10.77
2022-11-24T14:42:24.339Z,10.75
2022-11-24T14:47:37.717Z,10.74
2022-11-24T14:52:55.092Z,10.71
2022-11-24T14:57:57.959Z,10.67
2022-11-24T15:03:02.668Z,10.63
2022-11-24T15:08:04.593Z,10.61
2022-11-24T15:13:24.568Z,10.62
2022-11-24T15:18:46.963Z,10.63
2022-11-24T15:24:07.013Z,10.60
2022-11-24T15:29:09.647Z,10.58
2022-11-24T15:34:14.249Z,10.56
2022-11-24T15:39:15.903Z,10.52
2022-11-24T15:44:17.521Z,10.48
2022-11-24T15:49:19.249Z,10.44
2022-11-24T15:54:21.272Z,10.38
2022-11-24T15:59:23.272Z,10.35
2022-11-24T16:04:25.285Z,10.33
2022-11-24T16:09:27.057Z,10.28
2022-11-24T16:14:28.691Z,10.26
2022-11-24T16:19:30.520Z,10.23
2022-11-24T16:24:32.850Z,10.20
2022-11-24T16:29:38.404Z,10.17
2022-11-24T16:34:40.404Z,10.13
2022-11-24T16:39:48.438Z,10.11
2022-11-24T16:44:54.517Z,10.06
2022-11-24T16:49:56.255Z,10.02
2022-11-24T16:54:58.120Z,9.98
2022-11-24T16:59:59.808Z,9.93
2022-11-24T17:05:01.909Z,9.90
2022-11-24T17:10:03.840Z,9.87
2022-11-24T17:20:28.081Z,9.75
2022-11-24T17:25:29.727Z,9.71
2022-11-24T17:30:31.402Z,9.69
2022-11-24T17:35:37.124Z,9.67
2022-11-24T17:40:38.786Z,9.65
2022-11-24T17:45:40.496Z,9.65
2022-11-24T17:50:42.177Z,9.65
2022-11-24T17:55:43.847Z,9.67
2022-11-24T18:00:45.537Z,9.68
2022-11-24T18:05:48.250Z,9.67
2022-11-24T18:10:50.284Z,9.69
2022-11-24T18:15:52.184Z,9.69
2022-11-24T18:20:58.745Z,9.69
2022-11-24T18:26:02.331Z,9.67
2022-11-24T18:31:07.448Z,9.66
2022-11-24T18:36:13.245Z,9.70
2022-11-24T18:41:15.212Z,9.70
2022-11-24T18:46:18.237Z,9.71
2022-11-24T18:51:19.949Z,9.71
2022-11-24T18:56:21.711Z,9.72
2022-11-24T19:01:31.283Z,9.73
2022-11-24T19:06:36.465Z,9.75
2022-11-24T19:11:40.072Z,9.76
2022-11-24T19:16:49.580Z,9.76
2022-11-24T19:21:51.291Z,9.75
2022-11-24T19:26:54.273Z,9.76
2022-11-24T19:31:55.974Z,9.78
2022-11-24T19:36:58.037Z,9.77
2022-11-24T19:42:00.678Z,9.78
2022-11-24T19:47:02.324Z,9.80
2022-11-24T19:52:05.248Z,9.80
2022-11-24T19:57:07.018Z,9.80
2022-11-24T20:02:10.570Z,9.81
2022-11-24T20:07:12.829Z,9.80
2022-11-24T20:12:15.036Z,9.79
2022-11-24T20:17:16.699Z,9.81
2022-11-24T20:22:19.416Z,9.80
2022-11-24T20:27:21.226Z,9.80
2022-11-24T20:32:22.838Z,9.81
2022-11-24T20:37:24.660Z,9.80
2022-11-24T20:42:27.468Z,9.77
2022-11-24T20:47:31.392Z,9.76
2022-11-24T20:52:34.388Z,9.74
2022-11-24T20:57:36.160Z,9.71
2022-11-24T21:02:37.818Z,9.66
2022-11-24T21:07:39.566Z,9.60
2022-11-24T21:12:41.394Z,9.58
2022-11-24T21:17:43.563Z,9.54
2022-11-24T21:22:45.430Z,9.51
2022-11-24T21:27:49.045Z,9.48
2022-11-24T21:32:50.994Z,9.45
2022-11-24T21:37:52.844Z,9.42
2022-11-24T21:42:54.543Z,9.38
2022-11-24T21:47:59.531Z,9.37
2022-11-24T21:53:03.575Z,9.33
2022-11-24T21:58:10.560Z,9.28
2022-11-24T22:03:12.725Z,9.24
2022-11-24T22:08:14.774Z,9.20
2022-11-24T22:13:16.721Z,9.15
2022-11-24T22:18:18.349Z,9.11
2022-11-24T22:23:21.447Z,9.07
2022-11-24T22:28:24.769Z,9.01
2022-11-24T22:33:26.958Z,8.95
2022-11-24T22:38:31.049Z,8.92
2022-11-24T22:43:34.941Z,8.87
2022-11-24T22:48:37.663Z,8.84
2022-11-24T22:53:39.987Z,8.79
2022-11-24T22:58:42.640Z,8.75
2022-11-24T23:03:45.541Z,8.71
2022-11-24T23:08:49.945Z,8.66
2022-11-24T23:13:56.240Z,8.65
2022-11-24T23:18:58.295Z,8.57
2022-11-24T23:24:02.407Z,8.50
2022-11-24T23:29:04.850Z,8.42
2022-11-24T23:34:06.544Z,8.33
2022-11-24T23:39:11.623Z,8.28
2022-11-24T23:44:13.264Z,8.21
2022-11-24T23:49:14.819Z,8.19
2022-11-24T23:54:16.706Z,8.16
2022-11-24T23:59:19.726Z,8.16
